Time;durP1;ratioP1;P1;durP2;ratioP2;P2;SDS_P1;SDS_P2;PMS_P1;PMS_P2;Temp;Humidity;BMP_temperature;BMP_pressure;BME280_temperature;BME280_humidity;BME280_pressure;Samples;Min_cycle;Max_cycle;Signal;HPM_P1;HPM_P2
2021/01/29 08:26:11;;;;;;;1.67;0.80;;;19.20;51.60;;;;;;5110316;27;20764;-34
2021/01/29 08:29:04;;;;;;;1.65;0.30;;;19.40;51.10;;;;;;5109950;28;20039;-35
2021/01/29 08:32:18;;;;;;;2.55;0.50;;;19.60;50.50;;;;;;5110365;28;20022;-33
2021/01/29 08:35:03;;;;;;;1.25;0.50;;;19.80;50.50;;;;;;5104478;28;20032;-33
2021/01/29 08:38:09;;;;;;;0.50;0.50;;;19.80;50.10;;;;;;5110157;28;20034;-35
2021/01/29 08:41:00;;;;;;;0.75;0.52;;;19.90;50.10;;;;;;5109739;28;20039;-33
2021/01/29 08:44:07;;;;;;;1.02;0.52;;;20.00;50.10;;;;;;5109942;28;20050;-35
2021/01/29 08:46:46;;;;;;;0.82;0.47;;;20.00;50.10;;;;;;5047376;28;20100;-33
2021/01/29 08:49:39;;;;;;;3.83;0.30;;;20.10;50.10;;;;;;5047428;28;20033;-34
2021/01/29 08:52:13;;;;;;;0.50;0.50;;;20.10;50.00;;;;;;5047204;28;20498;-33
2021/01/29 08:54:57;;;;;;;0.50;0.50;;;20.10;49.90;;;;;;5047348;28;20052;-32
2021/01/29 08:57:40;;;;;;;1.40;0.40;;;20.10;49.80;;;;;;5046735;28;20033;-41
2021/01/29 09:00:22;;;;;;;1.00;0.35;;;20.20;49.90;;;;;;5046850;28;20036;-39
2021/01/29 09:03:16;;;;;;;1.83;0.45;;;20.30;49.90;;;;;;5047115;28;20064;-36
2021/01/29 09:05:45;;;;;;;1.55;0.45;;;20.30;50.00;;;;;;5046497;28;20025;-45
2021/01/29 09:08:18;;;;;;;1.13;0.60;;;20.30;49.90;;;;;;5047026;28;20521;-34
2021/01/29 09:11:10;;;;;;;0.82;0.57;;;20.40;49.90;;;;;;5046801;28;20083;-45
2021/01/29 09:13:40;;;;;;;1.75;0.45;;;20.40;49.60;;;;;;5046552;28;20045;-33
2021/01/29 09:16:25;;;;;;;0.75;0.50;;;20.50;50.00;;;;;;5046566;28;20140;-37
2021/01/29 09:19:07;;;;;;;1.02;0.60;;;20.50;49.60;;;;;;5046728;28;20090;-33
2021/01/29 09:21:37;;;;;;;1.17;0.60;;;20.50;49.70;;;;;;5104362;28;20042;-32
2021/01/29 09:24:24;;;;;;;2.25;0.60;;;20.50;49.60;;;;;;5108793;28;20417;-31
2021/01/29 09:27:05;;;;;;;0.45;0.45;;;20.50;49.50;;;;;;5109280;28;20024;-31
2021/01/29 09:29:44;;;;;;;0.60;0.60;;;20.60;49.60;;;;;;5109303;28;20024;-34
2021/01/29 09:32:17;;;;;;;0.52;0.52;;;20.60;49.50;;;;;;5109111;28;20099;-41
2021/01/29 09:34:48;;;;;;;0.60;0.60;;;20.60;49.50;;;;;;5109012;28;20031;-37
2021/01/29 09:37:21;;;;;;;0.60;0.60;;;20.70;49.60;;;;;;5094928;28;20024;-44
2021/01/29 09:39:52;;;;;;;0.75;0.75;;;20.70;49.40;;;;;;5095446;28;20109;-42
2021/01/29 09:42:26;;;;;;;0.65;0.63;;;20.80;49.50;;;;;;5095062;28;20024;-41
2021/01/29 09:45:06;;;;;;;2.92;0.70;;;20.80;49.40;;;;;;5095144;28;20110;-37
2021/01/29 09:47:41;;;;;;;2.13;0.88;;;20.80;49.80;;;;;;5094789;28;20043;-38
2021/01/29 09:50:12;;;;;;;4.38;1.30;;;20.90;49.70;;;;;;5095197;28;20034;-43
2021/01/29 09:52:56;;;;;;;;;;;20.90;49.60;;;;;;5095547;28;20020;-43
2021/01/29 09:55:57;;;;;;;2.47;0.93;;;21.00;49.80;;;;;;5094878;28;19904;-36
2021/01/29 09:58:52;;;;;;;0.70;0.70;;;21.00;50.10;;;;;;5094884;28;20028;-36
2021/01/29 10:01:22;;;;;;;1.90;1.80;;;21.00;50.00;;;;;;5095044;28;20021;-37
2021/01/29 10:04:02;;;;;;;3.38;1.67;;;21.00;50.00;;;;;;5092572;28;20438;-36
2021/01/29 10:06:55;;;;;;;29.80;3.92;;;21.00;50.00;;;;;;5087865;28;20445;-40
2021/01/29 10:09:34;;;;;;;1.85;1.70;;;21.00;50.20;;;;;;5095093;28;20032;-37
2021/01/29 10:12:03;;;;;;;2.10;1.90;;;21.10;49.90;;;;;;5094735;28;20039;-42
2021/01/29 10:14:43;;;;;;;2.67;2.10;;;21.10;50.10;;;;;;5094834;28;20343;-41
2021/01/29 10:17:24;;;;;;;2.25;2.05;;;21.10;50.00;;;;;;5094863;28;20502;-42
2021/01/29 10:20:40;;;;;;;2.50;2.10;;;21.10;50.10;;;;;;5094815;28;20412;-42
2021/01/29 10:23:18;;;;;;;2.63;1.75;;;21.20;50.00;;;;;;5080230;28;20020;-32
2021/01/29 10:26:09;;;;;;;2.15;1.90;;;21.20;50.10;;;;;;5095108;28;20105;-43
2021/01/29 10:28:50;;;;;;;3.05;2.22;;;21.20;50.00;;;;;;5094430;28;20055;-44
2021/01/29 10:31:22;;;;;;;2.20;1.90;;;21.30;50.00;;;;;;5094419;28;20093;-44
2021/01/29 10:33:58;;;;;;;9.00;2.63;;;21.30;50.40;;;;;;5086481;28;20580;-44
2021/01/29 10:36:28;;;;;;;1.60;1.50;;;21.30;49.70;;;;;;5084646;28;20032;-41
2021/01/29 10:39:23;;;;;;;2.38;1.90;;;21.40;49.60;;;;;;5074590;28;20394;-44
2021/01/29 10:41:59;;;;;;;1.77;1.67;;;21.40;49.60;;;;;;5073693;28;20071;-41
2021/01/29 10:44:29;;;;;;;1.67;1.58;;;21.40;49.60;;;;;;5074137;28;20114;-43
2021/01/29 10:46:58;;;;;;;;;;;21.50;49.60;;;;;;5074146;28;20539;-37
2021/01/29 10:49:57;;;;;;;3.25;1.50;;;21.50;49.70;;;;;;5074282;28;19904;-36
2021/01/29 10:52:58;;;;;;;4.43;2.08;;;21.50;49.90;;;;;;5074674;28;20170;-37
2021/01/29 10:55:37;;;;;;;1.65;1.42;;;21.50;49.50;;;;;;5074409;28;20425;-33
2021/01/29 10:58:36;;;;;;;1.10;1.00;;;21.50;49.80;;;;;;5074654;28;20049;-33
2021/01/29 11:01:26;;;;;;;1.30;1.20;;;21.50;49.70;;;;;;5087503;28;20036;-32
2021/01/29 11:04:17;;;;;;;3.28;1.55;;;21.60;49.50;;;;;;5103727;28;20044;-38
2021/01/29 11:06:43;;;;;;;2.83;1.70;;;21.60;49.30;;;;;;5114143;28;20053;-38
2021/01/29 11:09:19;;;;;;;2.03;1.08;;;21.60;49.50;;;;;;5114023;28;20023;-35
2021/01/29 11:12:18;;;;;;;1.48;1.38;;;21.60;49.70;;;;;;5114149;28;20024;-36
2021/01/29 11:15:08;;;;;;;3.00;1.50;;;21.60;49.50;;;;;;5099062;28;20036;-38
2021/01/29 11:18:00;;;;;;;5.68;2.08;;;21.60;49.50;;;;;;5093826;28;20492;-35
2021/01/29 11:20:35;;;;;;;3.58;1.45;;;21.70;49.70;;;;;;5094124;28;20032;-38
2021/01/29 11:23:20;;;;;;;1.80;1.42;;;21.70;50.10;;;;;;5092913;28;20500;-38
2021/01/29 11:25:49;;;;;;;8.07;1.50;;;21.70;50.20;;;;;;5093267;28;20067;-39
2021/01/29 11:28:29;;;;;;;6.35;1.75;;;21.70;50.80;;;;;;5093181;28;20035;-39
2021/01/29 11:31:03;;;;;;;3.78;1.27;;;21.70;50.90;;;;;;5093410;28;20032;-37
2021/01/29 11:33:34;;;;;;;5.60;1.45;;;21.80;50.80;;;;;;5090436;28;20018;-42
2021/01/29 11:36:26;;;;;;;1.63;1.05;;;21.80;50.00;;;;;;5080090;28;20395;-43
2021/01/29 11:39:26;;;;;;;11.80;2.05;;;21.80;50.00;;;;;;5092982;28;20059;-33
2021/01/29 11:42:10;;;;;;;5.32;1.70;;;21.90;50.60;;;;;;5078166;28;20047;-35
2021/01/29 11:45:08;;;;;;;9.00;1.85;;;21.80;50.00;;;;;;5092971;28;20016;-38
2021/01/29 11:47:48;;;;;;;4.07;1.17;;;21.80;50.20;;;;;;5091906;28;20040;-37
2021/01/29 11:50:43;;;;;;;3.65;1.00;;;21.80;50.30;;;;;;5092494;28;20051;-37
2021/01/29 11:53:34;;;;;;;3.90;1.10;;;21.70;50.40;;;;;;5092824;28;20020;-37
2021/01/29 11:56:07;;;;;;;5.82;0.90;;;21.70;50.40;;;;;;5092490;28;20516;-37
2021/01/29 11:58:47;;;;;;;2.00;1.20;;;21.70;50.40;;;;;;5092411;28;20028;-37
2021/01/29 12:01:29;;;;;;;1.95;1.60;;;21.70;50.30;;;;;;5092855;28;20023;-37
2021/01/29 12:04:05;;;;;;;3.88;1.33;;;21.70;50.20;;;;;;5092607;28;20024;-37
2021/01/29 12:06:57;;;;;;;0.85;0.85;;;21.70;50.40;;;;;;5091957;28;20053;-37
2021/01/29 12:09:51;;;;;;;5.53;1.00;;;21.70;50.60;;;;;;5092514;28;20431;-37
2021/01/29 12:12:43;;;;;;;6.13;1.88;;;21.60;50.80;;;;;;5091111;28;20032;-37
2021/01/29 12:15:21;;;;;;;6.25;1.83;;;21.60;51.00;;;;;;5090750;28;20028;-37
2021/01/29 12:17:58;;;;;;;2.55;1.15;;;21.60;51.10;;;;;;5080149;28;20072;-37
2021/01/29 12:20:31;;;;;;;2.45;1.02;;;21.60;51.30;;;;;;5091768;28;20042;-37
2021/01/29 12:23:24;;;;;;;1.58;1.48;;;21.60;51.20;;;;;;5092548;28;20020;-36
2021/01/29 12:25:56;;;;;;;1.33;1.08;;;21.60;51.10;;;;;;5092144;28;20178;-37
2021/01/29 12:28:40;;;;;;;1.50;1.33;;;21.60;51.10;;;;;;5076978;28;20483;-37
2021/01/29 12:31:45;;;;;;;1.13;1.08;;;21.60;51.10;;;;;;5072378;28;20028;-38
2021/01/29 12:34:26;;;;;;;1.05;0.93;;;21.60;51.00;;;;;;5071824;28;20029;-37
2021/01/29 12:37:11;;;;;;;1.60;1.15;;;21.60;50.90;;;;;;5071890;28;20492;-36
2021/01/29 12:39:46;;;;;;;2.92;1.08;;;21.60;51.10;;;;;;5071861;28;20021;-37
2021/01/29 12:42:27;;;;;;;5.43;1.33;;;21.70;50.60;;;;;;5072154;28;20032;-37
2021/01/29 12:45:19;;;;;;;5.82;1.27;;;21.70;49.90;;;;;;5082564;28;20028;-36
2021/01/29 12:47:55;;;;;;;21.13;3.10;;;21.70;49.80;;;;;;5091847;28;20058;-37
2021/01/29 12:50:42;;;;;;;9.73;1.58;;;21.70;50.20;;;;;;5091728;28;20438;-36
2021/01/29 12:53:24;;;;;;;17.27;1.80;;;21.70;50.60;;;;;;5092300;28;20056;-36
2021/01/29 12:56:21;;;;;;;10.90;1.38;;;21.70;51.10;;;;;;5091894;28;20028;-35
2021/01/29 12:58:57;;;;;;;5.45;1.73;;;21.60;51.20;;;;;;5092265;28;20384;-36
2021/01/29 13:01:36;;;;;;;5.82;1.13;;;21.70;51.00;;;;;;5091563;28;20040;-36
2021/01/29 13:04:24;;;;;;;7.72;1.00;;;21.70;51.10;;;;;;5091974;28;20043;-36
2021/01/29 13:07:02;;;;;;;7.72;1.05;;;21.70;51.40;;;;;;5092173;28;20024;-36
2021/01/29 13:09:47;;;;;;;9.90;2.88;;;21.70;51.00;;;;;;5092104;28;20028;-36
2021/01/29 13:13:01;;;;;;;14.05;2.75;;;21.70;50.50;;;;;;5095375;28;20024;-36
2021/01/29 13:15:52;;;;;;;4.43;1.60;;;21.60;50.20;;;;;;5088646;28;20123;-36
2021/01/29 13:18:44;;;;;;;6.60;1.92;;;21.60;50.10;;;;;;5084716;28;20086;-36
2021/01/29 13:21:29;;;;;;;5.28;2.13;;;21.50;50.10;;;;;;5075060;28;20036;-36
2021/01/29 13:23:57;;;;;;;4.40;2.13;;;21.50;50.10;;;;;;5074988;28;20421;-36
2021/01/29 13:26:50;;;;;;;9.90;1.92;;;21.50;50.00;;;;;;5074997;28;20024;-36
2021/01/29 13:29:28;;;;;;;2.17;1.23;;;21.40;50.10;;;;;;5073366;28;20047;-36
2021/01/29 13:31:59;;;;;;;2.70;1.50;;;21.40;50.30;;;;;;5074577;28;20036;-35
2021/01/29 13:34:30;;;;;;;14.48;1.95;;;21.40;50.20;;;;;;5074994;28;20017;-51
2021/01/29 13:36:58;;;;;;;9.23;1.45;;;21.00;50.70;;;;;;5075227;28;20029;-47
2021/01/29 13:39:27;;;;;;;9.13;0.90;;;20.40;54.00;;;;;;5075063;28;20048;-33
2021/01/29 13:41:57;;;;;;;1.95;0.38;;;19.50;57.00;;;;;;5074748;28;20474;-29
2021/01/29 13:44:42;;;;;;;0.98;0.60;;;19.10;57.70;;;;;;5087132;28;20059;-30
2021/01/29 13:47:23;;;;;;;3.60;0.40;;;18.80;58.80;;;;;;5095190;28;20024;-38
2021/01/29 13:49:49;;;;;;;1.65;0.40;;;17.50;61.60;;;;;;5095193;28;20069;-41
2021/01/29 13:52:31;;;;;;;0.55;0.43;;;17.30;63.80;;;;;;5095122;28;20036;-39
2021/01/29 13:55:24;;;;;;;4.03;0.80;;;17.20;64.30;;;;;;5095141;28;20425;-36
2021/01/29 13:58:05;;;;;;;5.38;1.10;;;17.50;63.80;;;;;;5085813;28;20041;-36
2021/01/29 14:00:38;;;;;;;1.70;0.50;;;17.60;62.90;;;;;;5074412;28;20118;-40
2021/01/29 14:03:33;;;;;;;3.08;0.52;;;17.70;62.70;;;;;;5074535;28;20116;-37
2021/01/29 14:06:01;;;;;;;2.25;0.40;;;17.80;62.70;;;;;;5074550;28;20101;-38
2021/01/29 14:08:28;;;;;;;11.52;0.93;;;17.70;62.50;;;;;;5074520;28;20509;-37
2021/01/29 14:10:57;;;;;;;9.77;0.90;;;17.60;63.90;;;;;;5080217;28;20028;-35
2021/01/29 14:13:44;;;;;;;12.68;0.85;;;18.10;63.50;;;;;;5094381;28;20435;-36
2021/01/29 14:16:36;;;;;;;15.02;1.17;;;18.50;62.80;;;;;;5094760;28;20038;-36
2021/01/29 14:19:14;;;;;;;11.75;1.33;;;19.10;61.70;;;;;;5094595;28;20078;-35
2021/01/29 14:21:48;;;;;;;7.18;1.17;;;19.40;60.00;;;;;;5093962;28;20042;-33
2021/01/29 14:24:27;;;;;;;8.77;1.20;;;19.60;60.20;;;;;;5093791;28;20047;-38
2021/01/29 14:27:04;;;;;;;8.52;1.10;;;19.90;59.20;;;;;;5094614;28;20445;-34
2021/01/29 14:29:44;;;;;;;6.18;1.00;;;20.00;58.30;;;;;;5094395;28;20031;-37
2021/01/29 14:32:36;;;;;;;8.90;1.42;;;20.30;58.00;;;;;;5093999;28;20427;-37
2021/01/29 14:35:34;;;;;;;8.10;1.23;;;20.40;57.10;;;;;;5082932;28;20044;-38
2021/01/29 14:38:20;;;;;;;5.97;1.13;;;20.50;56.20;;;;;;5066610;28;20036;-36
2021/01/29 14:40:55;;;;;;;7.63;1.27;;;20.60;56.90;;;;;;5094416;28;20024;-32
2021/01/29 14:43:38;;;;;;;13.63;1.42;;;20.60;56.80;;;;;;5093836;28;20028;-38
2021/01/29 14:46:34;;;;;;;15.80;1.63;;;20.70;56.50;;;;;;5094027;28;20062;-45
2021/01/29 14:49:16;;;;;;;18.50;1.38;;;21.10;55.50;;;;;;5093911;28;20028;-42
2021/01/29 14:51:56;;;;;;;9.43;2.20;;;21.30;54.90;;;;;;5093960;28;20533;-49
2021/01/29 14:54:29;;;;;;;3.53;0.57;;;21.40;54.00;;;;;;5093347;28;20475;-40
2021/01/29 14:57:14;;;;;;;2.75;0.98;;;21.50;53.70;;;;;;5094123;28;20081;-41
2021/01/29 14:59:50;;;;;;;6.03;0.60;;;21.60;53.40;;;;;;5093998;28;20070;-40
2021/01/29 15:02:43;;;;;;;5.47;1.63;;;21.70;53.30;;;;;;5093861;28;20039;-40
2021/01/29 15:05:11;;;;;;;6.93;0.90;;;21.80;53.10;;;;;;5093414;28;20077;-41
2021/01/29 15:07:40;;;;;;;2.47;1.00;;;21.90;52.80;;;;;;5093932;28;20056;-40
2021/01/29 15:10:20;;;;;;;7.75;1.10;;;21.90;52.40;;;;;;5093882;28;20073;-42
2021/01/29 15:12:49;;;;;;;1.88;0.57;;;22.00;52.30;;;;;;5093678;28;20064;-41
2021/01/29 15:15:20;;;;;;;13.38;1.20;;;22.00;52.20;;;;;;5093496;28;20024;-41
2021/01/29 15:17:58;;;;;;;6.13;1.10;;;22.10;52.30;;;;;;5093084;28;20074;-45
2021/01/29 15:20:33;;;;;;;5.88;1.35;;;22.20;52.10;;;;;;5076520;28;20025;-44
2021/01/29 15:23:13;;;;;;;2.72;0.80;;;22.30;52.00;;;;;;5072771;28;20543;-44
2021/01/29 15:26:02;;;;;;;1.02;0.70;;;22.30;51.80;;;;;;5072646;28;20408;-47
2021/01/29 15:28:28;;;;;;;1.10;0.60;;;22.40;51.70;;;;;;5073917;28;20032;-48
2021/01/29 15:31:17;;;;;;;2.45;0.60;;;22.50;51.60;;;;;;5093336;28;20046;-39
2021/01/29 15:33:47;;;;;;;3.70;0.60;;;22.60;51.50;;;;;;5082788;28;20036;-39
2021/01/29 15:36:16;;;;;;;;;;;22.60;51.40;;;;;;5093576;28;20020;-45
2021/01/29 15:38:46;;;;;;;2.05;0.57;;;22.60;51.40;;;;;;5092686;28;19910;-48
2021/01/29 15:41:30;;;;;;;;;;;22.70;51.30;;;;;;5093294;28;20050;-40
2021/01/29 15:44:17;;;;;;;6.25;0.95;;;22.70;51.20;;;;;;5093041;28;19912;-44
2021/01/29 15:47:05;;;;;;;2.33;0.70;;;22.70;51.10;;;;;;5061336;28;20043;-43
2021/01/29 15:49:43;;;;;;;2.13;0.50;;;22.80;50.90;;;;;;5092445;28;20021;-45
2021/01/29 15:52:12;;;;;;;2.13;0.70;;;22.80;50.80;;;;;;5092483;28;20043;-43
2021/01/29 15:54:45;;;;;;;3.17;0.63;;;22.90;51.40;;;;;;5093124;28;20396;-45
2021/01/29 15:57:22;;;;;;;2.45;0.70;;;22.90;50.80;;;;;;5093206;28;20480;-44
2021/01/29 15:59:52;;;;;;;2.05;0.75;;;22.90;50.50;;;;;;5092448;28;20509;-45
2021/01/29 16:02:20;;;;;;;1.27;0.60;;;22.90;50.50;;;;;;5092448;28;20058;-44
2021/01/29 16:04:50;;;;;;;4.07;0.80;;;23.00;50.40;;;;;;5092785;28;20060;-39
2021/01/29 16:07:20;;;;;;;2.53;0.60;;;23.00;50.40;;;;;;5092507;28;20062;-43
2021/01/29 16:09:58;;;;;;;6.35;0.82;;;23.00;50.30;;;;;;5092490;28;20084;-40
2021/01/29 16:12:29;;;;;;;3.45;0.63;;;23.00;50.30;;;;;;5092127;28;20027;-42
2021/01/29 16:15:00;;;;;;;1.30;0.70;;;23.00;50.30;;;;;;5092722;28;20115;-38
2021/01/29 16:17:26;;;;;;;;;;;23.00;49.90;;;;;;5093196;28;20051;-38
2021/01/29 16:20:09;;;;;;;5.07;1.60;;;23.00;49.60;;;;;;5092770;28;20418;-38
2021/01/29 16:22:35;;;;;;;4.95;1.00;;;22.90;49.40;;;;;;5092604;28;20224;-39
2021/01/29 16:25:02;;;;;;;3.30;1.17;;;22.90;49.40;;;;;;5092080;28;20519;-39
2021/01/29 16:27:32;;;;;;;1.52;1.00;;;22.90;49.40;;;;;;5091517;28;20043;-39
2021/01/29 16:29:59;;;;;;;1.65;0.50;;;22.90;49.40;;;;;;5092717;28;20031;-39
2021/01/29 16:32:27;;;;;;;3.22;0.60;;;22.90;49.60;;;;;;5092449;28;20032;-39
2021/01/29 16:35:02;;;;;;;0.82;0.68;;;22.80;49.50;;;;;;5092528;28;20024;-45
2021/01/29 16:37:29;;;;;;;1.40;0.40;;;22.80;49.50;;;;;;5092612;28;20056;-38
2021/01/29 16:39:56;;;;;;;1.95;1.02;;;22.80;49.00;;;;;;5092534;28;20035;-36
2021/01/29 16:42:30;;;;;;;1.52;0.80;;;22.80;49.00;;;;;;5091980;28;20036;-39
2021/01/29 16:45:08;;;;;;;2.97;0.75;;;22.80;49.50;;;;;;5092421;28;20027;-51
2021/01/29 16:47:40;;;;;;;0.70;0.60;;;22.80;49.40;;;;;;5096551;28;20027;-48
2021/01/29 16:50:15;;;;;;;19.45;1.30;;;22.80;49.70;;;;;;5096112;28;20020;-45
2021/01/29 16:52:52;;;;;;;68.95;5.40;;;22.80;49.40;;;;;;5096233;28;20032;-43
2021/01/29 16:55:22;;;;;;;43.42;3.65;;;22.80;49.20;;;;;;5096415;28;20045;-43
2021/01/29 16:57:56;;;;;;;295.38;17.38;;;22.80;49.20;;;;;;5096395;28;20081;-42
2021/01/29 17:00:23;;;;;;;37.78;2.85;;;22.80;49.40;;;;;;5096098;28;20076;-42
